Time;durP1;ratioP1;P1;durP2;ratioP2;P2;SDS_P1;SDS_P2;PMS_P1;PMS_P2;Temp;Humidity;BMP_temperature;BMP_pressure;BME280_temperature;BME280_humidity;BME280_pressure;Samples;Min_cycle;Max_cycle;Signal;HPM_P1;HPM_P2
2023/08/22 00:01:19;;;;;;;10.03;4.00;;;;;;;;;;5002994;28;20696;-75
2023/08/22 00:03:46;;;;;;;13.57;4.13;;;;;;;;;;5005496;28;20036;-75
2023/08/22 00:06:11;;;;;;;8.98;3.80;;;;;;;;;;5007465;28;20269;-75
2023/08/22 00:08:37;;;;;;;13.27;4.20;;;;;;;;;;5007339;28;20518;-75
2023/08/22 00:11:02;;;;;;;10.80;4.07;;;;;;;;;;5002397;28;20025;-75
2023/08/22 00:13:27;;;;;;;8.40;4.10;;;;;;;;;;4999582;28;20375;-75
2023/08/22 00:15:58;;;;;;;7.23;3.73;;;;;;;;;;5002014;28;20391;-75
2023/08/22 00:18:23;;;;;;;9.60;3.85;;;;;;;;;;5000759;28;20030;-74
2023/08/22 00:20:48;;;;;;;10.10;4.17;;;;;;;;;;4998218;28;20125;-75
2023/08/22 00:23:13;;;;;;;7.03;4.60;;;;;;;;;;5002568;28;20037;-75
2023/08/22 00:25:38;;;;;;;7.97;4.23;;;;;;;;;;4993988;28;20121;-75
2023/08/22 00:28:03;;;;;;;7.27;4.03;;;;;;;;;;5000106;28;20339;-75
2023/08/22 00:30:29;;;;;;;8.27;4.03;;;;;;;;;;5006891;28;20026;-73
2023/08/22 00:32:54;;;;;;;9.80;3.90;;;;;;;;;;5002720;28;20426;-75
2023/08/22 00:35:19;;;;;;;16.38;4.22;;;;;;;;;;5007975;28;20281;-74
2023/08/22 00:37:44;;;;;;;7.32;3.90;;;;;;;;;;5006304;28;20126;-75
2023/08/22 00:40:10;;;;;;;19.67;3.33;;;;;;;;;;5003427;28;20023;-75
2023/08/22 00:42:35;;;;;;;8.95;4.07;;;;;;;;;;5002004;28;20034;-74
2023/08/22 00:45:00;;;;;;;7.85;3.45;;;;;;;;;;5000962;28;20066;-74
2023/08/22 00:47:25;;;;;;;7.10;3.30;;;;;;;;;;5005684;28;20036;-74
2023/08/22 00:49:51;;;;;;;8.73;3.43;;;;;;;;;;5005416;28;20088;-75
2023/08/22 00:52:17;;;;;;;14.68;4.22;;;;;;;;;;5010753;28;20351;-75
2023/08/22 00:54:42;;;;;;;9.63;3.38;;;;;;;;;;5007596;28;20025;-74
2023/08/22 00:57:07;;;;;;;8.82;3.50;;;;;;;;;;5005351;28;20413;-75
2023/08/22 00:59:33;;;;;;;6.78;3.38;;;;;;;;;;5009700;28;20022;-74
2023/08/22 01:01:58;;;;;;;8.15;3.70;;;;;;;;;;5010146;28;20026;-73
2023/08/22 01:04:23;;;;;;;8.67;4.50;;;;;;;;;;5007978;28;20022;-74
2023/08/22 01:07:06;;;;;;;9.03;3.67;;;;;;;;;;5003949;28;20750;-74
2023/08/22 01:09:34;;;;;;;8.65;3.28;;;;;;;;;;5004077;28;20299;-72
2023/08/22 01:12:11;;;;;;;13.23;3.70;;;;;;;;;;5005272;28;20025;-75
2023/08/22 01:14:39;;;;;;;6.22;3.15;;;;;;;;;;5003410;28;20057;-73
2023/08/22 01:17:05;;;;;;;8.57;3.40;;;;;;;;;;5008136;28;21001;-74
2023/08/22 01:19:30;;;;;;;5.35;3.03;;;;;;;;;;5007940;28;20030;-73
2023/08/22 01:21:56;;;;;;;6.47;3.10;;;;;;;;;;5006990;28;20475;-75
2023/08/22 01:24:21;;;;;;;4.40;3.00;;;;;;;;;;5004727;28;20045;-74
2023/08/22 01:26:47;;;;;;;14.93;3.50;;;;;;;;;;5006233;28;20022;-73
2023/08/22 01:29:16;;;;;;;9.77;3.63;;;;;;;;;;5005994;28;20327;-74
2023/08/22 01:31:55;;;;;;;11.18;3.10;;;;;;;;;;5005892;28;20060;-74
2023/08/22 01:34:22;;;;;;;13.85;3.15;;;;;;;;;;5003957;28;20057;-75
2023/08/22 01:36:48;;;;;;;7.68;3.85;;;;;;;;;;5010658;28;20050;-75
2023/08/22 01:39:15;;;;;;;8.02;3.33;;;;;;;;;;4993207;28;20057;-75
2023/08/22 01:41:40;;;;;;;8.75;3.15;;;;;;;;;;5007121;28;20021;-75
2023/08/22 01:44:05;;;;;;;11.05;3.28;;;;;;;;;;5006922;28;20435;-74
2023/08/22 01:46:30;;;;;;;5.95;3.08;;;;;;;;;;5016553;28;20422;-75
2023/08/22 01:48:55;;;;;;;7.53;3.40;;;;;;;;;;5005107;28;20071;-74
2023/08/22 01:51:21;;;;;;;8.05;3.10;;;;;;;;;;5004472;28;20018;-75
2023/08/22 01:53:46;;;;;;;7.80;3.70;;;;;;;;;;5010991;28;20113;-74
2023/08/22 01:56:11;;;;;;;11.60;3.40;;;;;;;;;;5008219;28;20088;-75
2023/08/22 01:58:36;;;;;;;8.33;3.33;;;;;;;;;;5009105;28;20058;-74
2023/08/22 02:01:08;;;;;;;6.82;3.03;;;;;;;;;;5007291;28;20368;-75
2023/08/22 02:03:33;;;;;;;8.50;3.40;;;;;;;;;;5010403;28;20065;-75
2023/08/22 02:05:59;;;;;;;10.67;4.33;;;;;;;;;;5009650;28;20426;-75
2023/08/22 02:08:24;;;;;;;11.03;3.63;;;;;;;;;;5012190;28;20093;-74
2023/08/22 02:10:49;;;;;;;8.38;3.70;;;;;;;;;;5008109;28;20450;-74
2023/08/22 02:13:14;;;;;;;8.10;3.23;;;;;;;;;;5008753;28;20028;-75
2023/08/22 02:15:40;;;;;;;7.05;2.83;;;;;;;;;;5010658;28;20260;-75
2023/08/22 02:18:05;;;;;;;7.93;3.30;;;;;;;;;;5010414;28;20038;-75
2023/08/22 02:20:30;;;;;;;6.70;3.28;;;;;;;;;;5004684;28;20438;-75
2023/08/22 02:22:55;;;;;;;15.45;3.70;;;;;;;;;;5006823;28;20017;-75
2023/08/22 02:25:21;;;;;;;6.68;3.17;;;;;;;;;;5005483;28;20022;-74
2023/08/22 02:27:46;;;;;;;8.73;3.00;;;;;;;;;;5006109;28;20156;-75
2023/08/22 02:30:11;;;;;;;9.02;3.80;;;;;;;;;;5009489;28;20466;-75
2023/08/22 02:32:37;;;;;;;9.90;3.95;;;;;;;;;;5009303;28;20113;-74
2023/08/22 02:35:03;;;;;;;13.67;3.47;;;;;;;;;;5005571;28;20033;-75
2023/08/22 02:37:28;;;;;;;12.60;3.38;;;;;;;;;;5010670;28;20026;-75
2023/08/22 02:39:55;;;;;;;5.63;3.28;;;;;;;;;;5007929;28;20036;-75
2023/08/22 02:42:20;;;;;;;4.97;3.38;;;;;;;;;;5008292;28;20295;-75
2023/08/22 02:44:45;;;;;;;12.13;4.07;;;;;;;;;;5000395;28;20126;-74
2023/08/22 02:47:11;;;;;;;11.07;3.37;;;;;;;;;;4999826;28;20371;-75
2023/08/22 02:49:36;;;;;;;6.50;2.60;;;;;;;;;;5006850;28;20024;-74
2023/08/22 02:52:02;;;;;;;8.17;3.67;;;;;;;;;;5008701;28;20454;-75
2023/08/22 02:54:27;;;;;;;7.88;2.70;;;;;;;;;;5005415;28;20064;-75
2023/08/22 02:56:52;;;;;;;11.60;2.67;;;;;;;;;;5004779;28;20061;-74
2023/08/22 02:59:20;;;;;;;7.40;3.13;;;;;;;;;;5009494;28;20026;-75
2023/08/22 03:01:45;;;;;;;10.93;3.05;;;;;;;;;;4999178;28;20102;-74
2023/08/22 03:04:10;;;;;;;6.28;3.25;;;;;;;;;;4996211;28;20112;-73
2023/08/22 03:06:35;;;;;;;7.38;3.40;;;;;;;;;;5004727;28;20017;-73
2023/08/22 03:09:03;;;;;;;11.50;3.27;;;;;;;;;;5000032;28;20022;-75
2023/08/22 03:11:28;;;;;;;9.88;3.28;;;;;;;;;;5001376;28;20026;-75
2023/08/22 03:13:53;;;;;;;7.13;3.70;;;;;;;;;;5003277;28;20096;-75
2023/08/22 03:16:18;;;;;;;11.50;3.10;;;;;;;;;;5003131;28;20022;-75
2023/08/22 03:18:43;;;;;;;6.83;3.37;;;;;;;;;;5004117;28;20495;-75
2023/08/22 03:21:09;;;;;;;13.80;3.83;;;;;;;;;;5001100;28;20040;-74
2023/08/22 03:23:34;;;;;;;13.27;3.53;;;;;;;;;;4998869;28;20108;-74
2023/08/22 03:26:00;;;;;;;14.68;3.20;;;;;;;;;;5005268;28;20026;-75
2023/08/22 03:28:26;;;;;;;4.60;2.88;;;;;;;;;;5003039;28;20108;-74
2023/08/22 03:30:55;;;;;;;7.25;3.55;;;;;;;;;;5004781;28;20126;-75
2023/08/22 03:33:20;;;;;;;7.78;3.63;;;;;;;;;;5009001;28;20014;-75
2023/08/22 03:35:45;;;;;;;9.23;3.10;;;;;;;;;;5006157;28;20021;-75
2023/08/22 03:38:10;;;;;;;10.13;3.00;;;;;;;;;;5000681;28;20782;-75
2023/08/22 03:40:35;;;;;;;7.70;3.00;;;;;;;;;;5003393;28;20025;-75
2023/08/22 03:43:01;;;;;;;8.55;3.30;;;;;;;;;;5007858;28;20523;-75
2023/08/22 03:45:26;;;;;;;5.63;2.97;;;;;;;;;;5008881;28;20438;-75
2023/08/22 03:47:51;;;;;;;9.37;3.33;;;;;;;;;;5007832;28;20018;-75
2023/08/22 03:50:16;;;;;;;7.85;2.83;;;;;;;;;;5006700;28;20018;-75
2023/08/22 03:52:41;;;;;;;8.98;4.20;;;;;;;;;;5008835;28;20014;-75
2023/08/22 03:55:07;;;;;;;8.43;3.35;;;;;;;;;;5008128;28;20578;-76
2023/08/22 03:57:32;;;;;;;10.77;3.03;;;;;;;;;;5010131;28;20506;-75
2023/08/22 03:59:57;;;;;;;6.27;3.17;;;;;;;;;;4991784;28;20018;-75
2023/08/22 04:02:22;;;;;;;12.70;3.40;;;;;;;;;;4989631;28;20331;-75
2023/08/22 04:04:47;;;;;;;9.95;3.75;;;;;;;;;;5007593;28;20053;-75
2023/08/22 04:07:12;;;;;;;8.00;3.47;;;;;;;;;;5010058;28;20038;-75
2023/08/22 04:09:38;;;;;;;19.07;3.20;;;;;;;;;;5009704;28;20503;-75
2023/08/22 04:12:03;;;;;;;6.37;3.33;;;;;;;;;;5005221;28;20079;-75
2023/08/22 04:14:28;;;;;;;10.38;3.85;;;;;;;;;;5008975;28;20687;-76
2023/08/22 04:16:53;;;;;;;5.80;3.43;;;;;;;;;;4982041;28;20027;-76
2023/08/22 04:19:18;;;;;;;7.60;3.45;;;;;;;;;;5000520;28;20018;-75
2023/08/22 04:21:43;;;;;;;20.17;3.73;;;;;;;;;;5008403;28;20030;-76
2023/08/22 04:24:09;;;;;;;15.17;3.90;;;;;;;;;;5011144;28;20061;-75
2023/08/22 04:26:35;;;;;;;4.45;2.97;;;;;;;;;;5011569;28;20017;-75
2023/08/22 04:29:00;;;;;;;15.17;3.40;;;;;;;;;;5013235;28;20091;-75
2023/08/22 04:31:25;;;;;;;4.80;3.10;;;;;;;;;;4991732;28;20311;-75
2023/08/22 04:33:50;;;;;;;10.23;3.97;;;;;;;;;;5009093;28;20057;-75
2023/08/22 04:36:15;;;;;;;9.37;3.87;;;;;;;;;;5012519;28;20335;-75
2023/08/22 04:38:40;;;;;;;13.90;3.72;;;;;;;;;;5013103;28;20037;-75
2023/08/22 04:41:06;;;;;;;6.50;3.00;;;;;;;;;;5013268;28;20131;-75
2023/08/22 04:43:31;;;;;;;5.38;2.92;;;;;;;;;;5010734;28;20745;-75
2023/08/22 04:45:56;;;;;;;7.53;3.43;;;;;;;;;;5008332;28;20022;-75
2023/08/22 04:48:23;;;;;;;10.77;3.37;;;;;;;;;;5005040;28;20037;-75
2023/08/22 04:50:48;;;;;;;8.43;3.13;;;;;;;;;;5007042;28;20029;-75
2023/08/22 04:53:13;;;;;;;8.27;3.15;;;;;;;;;;5008913;28;20494;-75
2023/08/22 04:55:38;;;;;;;5.63;3.07;;;;;;;;;;5012564;28;20084;-75
2023/08/22 04:58:04;;;;;;;12.27;4.00;;;;;;;;;;5010239;28;20391;-74
2023/08/22 05:00:30;;;;;;;16.57;3.93;;;;;;;;;;5007672;28;20030;-75
2023/08/22 05:02:55;;;;;;;10.05;4.22;;;;;;;;;;5003924;28;20017;-74
2023/08/22 05:05:20;;;;;;;13.80;3.95;;;;;;;;;;5007067;28;20033;-74
2023/08/22 05:07:45;;;;;;;11.80;4.73;;;;;;;;;;5011379;28;20030;-74
2023/08/22 05:10:11;;;;;;;10.47;3.50;;;;;;;;;;5005083;28;20656;-75
2023/08/22 05:12:36;;;;;;;7.43;3.45;;;;;;;;;;5005243;28;20037;-75
2023/08/22 05:15:02;;;;;;;9.47;3.30;;;;;;;;;;5008821;28;20018;-75
2023/08/22 05:17:27;;;;;;;10.48;3.42;;;;;;;;;;4987607;28;20660;-75
2023/08/22 05:19:52;;;;;;;13.57;3.33;;;;;;;;;;5007369;28;20076;-74
2023/08/22 05:22:17;;;;;;;8.88;3.65;;;;;;;;;;5005730;28;20046;-75
2023/08/22 05:24:43;;;;;;;15.18;4.05;;;;;;;;;;5008441;28;20037;-73
2023/08/22 05:27:08;;;;;;;11.57;4.33;;;;;;;;;;5011573;28;20030;-75
2023/08/22 05:29:33;;;;;;;12.60;4.07;;;;;;;;;;5011979;28;20276;-74
2023/08/22 05:31:58;;;;;;;11.13;4.17;;;;;;;;;;5009099;28;20475;-75
2023/08/22 05:34:23;;;;;;;12.43;4.20;;;;;;;;;;5005837;28;20407;-74
2023/08/22 05:36:48;;;;;;;11.02;4.15;;;;;;;;;;5005951;28;20074;-75
2023/08/22 05:39:13;;;;;;;9.83;4.03;;;;;;;;;;5008844;28;20157;-75
2023/08/22 05:41:39;;;;;;;10.80;4.50;;;;;;;;;;5008767;28;20025;-75
2023/08/22 05:44:04;;;;;;;10.27;4.78;;;;;;;;;;5005651;28;20093;-75
2023/08/22 05:46:29;;;;;;;15.60;5.80;;;;;;;;;;5005177;28;20475;-73
2023/08/22 05:48:54;;;;;;;19.30;5.03;;;;;;;;;;4995771;28;20276;-74
2023/08/22 05:51:20;;;;;;;11.60;4.80;;;;;;;;;;5001362;28;20022;-74
2023/08/22 05:53:45;;;;;;;11.73;5.30;;;;;;;;;;5004364;28;20990;-73
2023/08/22 05:56:10;;;;;;;11.15;5.40;;;;;;;;;;5004193;28;20042;-74
2023/08/22 05:58:35;;;;;;;19.93;6.40;;;;;;;;;;5001666;28;20041;-75
2023/08/22 06:01:08;;;;;;;12.55;6.10;;;;;;;;;;5007191;28;20331;-75
2023/08/22 06:03:33;;;;;;;10.55;5.63;;;;;;;;;;4998505;28;20053;-74
2023/08/22 06:05:58;;;;;;;11.63;5.72;;;;;;;;;;5008850;28;20053;-75
2023/08/22 06:08:23;;;;;;;10.33;5.97;;;;;;;;;;5004449;28;20034;-75
2023/08/22 06:10:48;;;;;;;13.13;6.07;;;;;;;;;;5007296;28;20083;-75
2023/08/22 06:13:14;;;;;;;13.38;6.32;;;;;;;;;;5010385;28;20014;-75
2023/08/22 06:15:39;;;;;;;9.90;5.72;;;;;;;;;;5001807;28;20112;-75
2023/08/22 06:18:04;;;;;;;15.77;5.83;;;;;;;;;;4998662;28;20026;-74
2023/08/22 06:20:30;;;;;;;13.47;5.30;;;;;;;;;;5002610;28;20509;-75
2023/08/22 06:22:55;;;;;;;13.30;6.28;;;;;;;;;;5006246;28;20885;-74
2023/08/22 06:25:20;;;;;;;11.57;5.72;;;;;;;;;;5004000;28;20132;-75
2023/08/22 06:27:45;;;;;;;10.98;6.72;;;;;;;;;;5001582;28;20024;-75
2023/08/22 06:30:11;;;;;;;13.20;7.40;;;;;;;;;;5004440;28;20026;-75
2023/08/22 06:32:36;;;;;;;11.38;6.70;;;;;;;;;;5005877;28;20084;-75
2023/08/22 06:35:01;;;;;;;13.47;6.03;;;;;;;;;;5007358;28;20026;-74
2023/08/22 06:37:26;;;;;;;27.47;7.30;;;;;;;;;;5009203;28;20477;-75
2023/08/22 06:39:51;;;;;;;13.13;6.23;;;;;;;;;;5004201;28;20758;-74
2023/08/22 06:42:17;;;;;;;14.43;7.07;;;;;;;;;;5000181;28;20030;-75
2023/08/22 06:44:42;;;;;;;22.93;7.70;;;;;;;;;;5006501;28;20087;-74
2023/08/22 06:47:08;;;;;;;17.97;8.10;;;;;;;;;;5007377;28;20040;-74
2023/08/22 06:49:33;;;;;;;13.88;7.18;;;;;;;;;;5010579;28;20749;-73
2023/08/22 06:51:59;;;;;;;17.53;7.87;;;;;;;;;;5007912;28;20029;-75
2023/08/22 06:54:24;;;;;;;24.77;8.05;;;;;;;;;;5009248;28;20030;-74
2023/08/22 06:56:49;;;;;;;14.67;6.70;;;;;;;;;;5002717;28;20056;-75
2023/08/22 06:59:16;;;;;;;25.93;9.23;;;;;;;;;;5004436;28;20390;-74
2023/08/22 07:01:41;;;;;;;26.15;10.43;;;;;;;;;;5005821;28;20390;-74
2023/08/22 07:04:07;;;;;;;27.17;8.68;;;;;;;;;;5003607;28;20038;-74
2023/08/22 07:06:32;;;;;;;18.13;8.95;;;;;;;;;;5007681;28;20022;-74
2023/08/22 07:08:57;;;;;;;20.75;9.38;;;;;;;;;;5003739;28;20052;-74
2023/08/22 07:11:22;;;;;;;19.33;9.35;;;;;;;;;;4997951;28;20045;-73
2023/08/22 07:13:47;;;;;;;17.60;8.77;;;;;;;;;;5005046;28;20030;-74
2023/08/22 07:16:13;;;;;;;29.67;8.37;;;;;;;;;;4999299;28;20281;-74
2023/08/22 07:18:38;;;;;;;20.33;9.17;;;;;;;;;;5003891;28;20434;-74
2023/08/22 07:21:04;;;;;;;27.40;8.77;;;;;;;;;;5003231;28;20104;-73
2023/08/22 07:23:29;;;;;;;17.95;8.35;;;;;;;;;;5007429;28;20030;-74
2023/08/22 07:25:54;;;;;;;14.17;8.17;;;;;;;;;;5010241;28;20056;-74
2023/08/22 07:28:19;;;;;;;15.73;7.13;;;;;;;;;;5009801;28;20479;-73
2023/08/22 07:30:45;;;;;;;17.43;7.93;;;;;;;;;;5010126;28;20063;-74
2023/08/22 07:33:10;;;;;;;17.13;7.20;;;;;;;;;;5008890;28;20025;-74
2023/08/22 07:35:35;;;;;;;15.23;7.27;;;;;;;;;;5009693;28;20026;-74
2023/08/22 07:38:01;;;;;;;18.73;7.78;;;;;;;;;;5009049;28;20518;-75
2023/08/22 07:40:26;;;;;;;14.73;7.90;;;;;;;;;;5010428;28;20390;-75
2023/08/22 07:42:51;;;;;;;16.93;8.00;;;;;;;;;;5009572;28;20021;-75
2023/08/22 07:45:16;;;;;;;17.63;8.73;;;;;;;;;;5009426;28;20053;-74
2023/08/22 07:47:42;;;;;;;21.80;8.47;;;;;;;;;;5009993;28;20029;-74
2023/08/22 07:50:07;;;;;;;16.67;9.53;;;;;;;;;;5010047;28;20041;-75
2023/08/22 07:52:32;;;;;;;27.05;9.90;;;;;;;;;;5013995;28;20052;-75
2023/08/22 07:54:57;;;;;;;25.53;8.90;;;;;;;;;;5009572;28;20033;-75
2023/08/22 07:57:22;;;;;;;19.27;8.10;;;;;;;;;;5004955;28;20261;-74
2023/08/22 07:59:48;;;;;;;17.20;9.27;;;;;;;;;;5012253;28;20486;-75
2023/08/22 08:02:13;;;;;;;19.30;9.35;;;;;;;;;;5014494;28;20030;-75
2023/08/22 08:04:38;;;;;;;19.98;8.60;;;;;;;;;;5014422;28;20026;-75
2023/08/22 08:07:04;;;;;;;23.20;8.57;;;;;;;;;;5014232;28;20112;-74
2023/08/22 08:09:29;;;;;;;18.13;8.63;;;;;;;;;;5013444;28;20014;-74
2023/08/22 08:11:54;;;;;;;28.47;12.87;;;;;;;;;;5011811;28;20057;-71
2023/08/22 08:14:20;;;;;;;28.03;11.40;;;;;;;;;;5013982;28;20360;-72
2023/08/22 08:16:45;;;;;;;24.10;10.80;;;;;;;;;;5014134;28;20709;-71
2023/08/22 08:19:10;;;;;;;26.83;10.57;;;;;;;;;;5013806;28;20049;-72
2023/08/22 08:21:36;;;;;;;22.58;11.98;;;;;;;;;;5013792;28;20028;-71
2023/08/22 08:24:02;;;;;;;22.30;10.43;;;;;;;;;;5012229;28;20100;-72
2023/08/22 08:26:27;;;;;;;32.72;13.07;;;;;;;;;;5012837;28;20080;-71
2023/08/22 08:28:52;;;;;;;25.37;11.37;;;;;;;;;;5013311;28;20022;-72
2023/08/22 08:31:17;;;;;;;25.63;11.43;;;;;;;;;;5013755;28;20303;-72
2023/08/22 08:33:42;;;;;;;33.47;12.03;;;;;;;;;;5011889;28;20053;-73
2023/08/22 08:36:08;;;;;;;25.58;12.07;;;;;;;;;;5013126;28;20018;-74
2023/08/22 08:38:33;;;;;;;20.63;9.90;;;;;;;;;;5012755;28;20026;-74
2023/08/22 08:41:00;;;;;;;23.02;9.95;;;;;;;;;;5012884;28;20016;-73
2023/08/22 08:43:25;;;;;;;24.80;10.57;;;;;;;;;;5013616;28;20029;-74
2023/08/22 08:45:51;;;;;;;19.88;9.73;;;;;;;;;;5009852;28;20022;-74
2023/08/22 08:48:17;;;;;;;22.90;9.13;;;;;;;;;;5013135;28;20022;-73
2023/08/22 08:50:43;;;;;;;29.63;9.00;;;;;;;;;;5013300;28;20028;-72
2023/08/22 08:53:08;;;;;;;19.77;8.90;;;;;;;;;;5011851;28;20388;-72
2023/08/22 08:55:34;;;;;;;24.60;8.43;;;;;;;;;;5011548;28;20029;-72
2023/08/22 08:58:00;;;;;;;32.20;9.38;;;;;;;;;;5011843;28;20288;-72
2023/08/22 09:00:25;;;;;;;15.77;8.10;;;;;;;;;;5013152;28;20022;-72
2023/08/22 09:02:50;;;;;;;19.40;7.93;;;;;;;;;;5013024;28;20026;-71
2023/08/22 09:05:15;;;;;;;22.67;9.40;;;;;;;;;;5013550;28;20128;-72
2023/08/22 09:07:42;;;;;;;23.13;9.43;;;;;;;;;;5008067;28;20022;-72
2023/08/22 09:10:08;;;;;;;17.75;7.78;;;;;;;;;;5006849;28;20292;-72
2023/08/22 09:12:36;;;;;;;19.10;7.13;;;;;;;;;;5013004;28;20025;-72
2023/08/22 09:15:02;;;;;;;14.13;7.63;;;;;;;;;;5012857;28;20323;-72
2023/08/22 09:17:28;;;;;;;14.77;7.38;;;;;;;;;;5012154;28;20034;-72
2023/08/22 09:19:54;;;;;;;22.20;8.80;;;;;;;;;;5012480;28;20028;-72
2023/08/22 09:22:19;;;;;;;15.43;5.45;;;;;;;;;;5011265;28;20030;-72
2023/08/22 09:24:51;;;;;;;12.50;4.60;;;;;;;;;;5010056;28;20088;-72
2023/08/22 09:27:19;;;;;;;12.98;6.38;;;;;;;;;;5003510;28;20018;-72
2023/08/22 09:29:45;;;;;;;11.68;6.57;;;;;;;;;;5008298;28;20463;-72
2023/08/22 09:32:10;;;;;;;14.40;7.13;;;;;;;;;;5009311;28;20118;-73
2023/08/22 09:34:35;;;;;;;20.17;6.87;;;;;;;;;;5000539;28;20022;-74
2023/08/22 09:37:00;;;;;;;14.77;6.60;;;;;;;;;;4998050;28;20372;-74
2023/08/22 09:39:25;;;;;;;16.88;7.05;;;;;;;;;;5008143;28;20276;-74
2023/08/22 09:41:54;;;;;;;17.93;6.07;;;;;;;;;;5008099;28;20033;-74
2023/08/22 09:44:25;;;;;;;17.40;4.88;;;;;;;;;;5008779;28;20292;-74
2023/08/22 09:46:51;;;;;;;8.70;5.05;;;;;;;;;;5011340;28;20033;-74
2023/08/22 09:49:17;;;;;;;14.40;4.53;;;;;;;;;;5012161;28;20555;-74
2023/08/22 09:51:43;;;;;;;13.63;5.18;;;;;;;;;;5011812;28;20026;-74
2023/08/22 09:54:09;;;;;;;16.80;6.50;;;;;;;;;;5011143;28;20158;-74
2023/08/22 09:56:34;;;;;;;11.90;5.10;;;;;;;;;;5008375;28;20375;-74
2023/08/22 09:59:01;;;;;;;14.73;4.83;;;;;;;;;;5010171;28;20037;-74
2023/08/22 10:01:27;;;;;;;10.25;4.10;;;;;;;;;;5011136;28;20277;-74
2023/08/22 10:03:56;;;;;;;10.90;3.20;;;;;;;;;;5004989;28;20217;-74
2023/08/22 10:06:31;;;;;;;5.65;2.40;;;;;;;;;;5010262;28;20393;-74
2023/08/22 10:08:56;;;;;;;8.38;2.85;;;;;;;;;;5009260;28;20026;-74
2023/08/22 10:11:22;;;;;;;9.48;3.75;;;;;;;;;;5011908;28;20386;-74
2023/08/22 10:13:48;;;;;;;10.50;3.78;;;;;;;;;;5011928;28;20117;-74
2023/08/22 10:16:14;;;;;;;22.63;4.28;;;;;;;;;;5009905;28;20021;-74
2023/08/22 10:18:39;;;;;;;16.85;4.38;;;;;;;;;;5010741;28;20028;-74
2023/08/22 10:21:04;;;;;;;8.53;3.63;;;;;;;;;;5010430;28;20030;-74
2023/08/22 10:23:48;;;;;;;22.80;5.88;;;;;;;;;;5011624;28;20053;-74
2023/08/22 10:26:15;;;;;;;16.00;5.50;;;;;;;;;;5004790;28;20025;-74
2023/08/22 10:28:41;;;;;;;10.70;5.10;;;;;;;;;;5005614;28;20133;-74
2023/08/22 10:31:07;;;;;;;15.55;5.95;;;;;;;;;;5002007;28;20634;-74
2023/08/22 10:33:32;;;;;;;14.65;5.05;;;;;;;;;;5009296;28;20435;-73
2023/08/22 10:36:04;;;;;;;10.55;4.35;;;;;;;;;;5005696;28;20028;-73
2023/08/22 10:38:46;;;;;;;12.52;4.28;;;;;;;;;;4998641;28;20053;-73
2023/08/22 10:41:12;;;;;;;13.70;5.13;;;;;;;;;;5008007;28;20490;-74
2023/08/22 10:43:38;;;;;;;16.50;5.55;;;;;;;;;;5004627;28;20022;-74
2023/08/22 10:46:03;;;;;;;14.45;6.18;;;;;;;;;;5002609;28;20023;-74
2023/08/22 10:48:28;;;;;;;13.43;5.80;;;;;;;;;;5002621;28;20080;-74
2023/08/22 10:51:03;;;;;;;13.20;5.82;;;;;;;;;;5003310;28;20069;-74
2023/08/22 10:53:28;;;;;;;15.85;5.60;;;;;;;;;;5001044;28;20027;-74
2023/08/22 10:55:54;;;;;;;17.45;5.93;;;;;;;;;;5006150;28;20105;-74
2023/08/22 10:58:32;;;;;;;15.25;6.43;;;;;;;;;;5006681;28;20472;-74
2023/08/22 11:00:58;;;;;;;15.65;5.38;;;;;;;;;;5005096;28;20545;-74
2023/08/22 11:03:23;;;;;;;16.80;5.50;;;;;;;;;;5008507;28;20037;-74
2023/08/22 11:05:49;;;;;;;17.50;5.17;;;;;;;;;;5001569;28;20018;-74
2023/08/22 11:08:14;;;;;;;20.70;7.47;;;;;;;;;;5006795;28;20277;-74
2023/08/22 11:10:41;;;;;;;15.20;5.60;;;;;;;;;;5008374;28;20092;-74
2023/08/22 11:13:09;;;;;;;13.15;5.88;;;;;;;;;;5008934;28;20037;-74
2023/08/22 11:15:34;;;;;;;11.85;4.50;;;;;;;;;;5009108;28;20018;-74
2023/08/22 11:18:00;;;;;;;11.73;5.18;;;;;;;;;;5006343;28;20032;-73
2023/08/22 11:20:25;;;;;;;18.75;4.53;;;;;;;;;;4989118;28;20053;-75
2023/08/22 11:22:50;;;;;;;10.75;4.18;;;;;;;;;;4997808;28;20100;-75
2023/08/22 11:25:22;;;;;;;16.13;5.40;;;;;;;;;;5008543;28;20202;-74
2023/08/22 11:27:47;;;;;;;18.38;5.10;;;;;;;;;;5007650;28;20016;-74
2023/08/22 11:30:12;;;;;;;15.53;4.17;;;;;;;;;;5007707;28;20030;-75
2023/08/22 11:32:38;;;;;;;17.13;4.27;;;;;;;;;;5006090;28;20108;-74
2023/08/22 11:35:07;;;;;;;15.02;4.93;;;;;;;;;;5006114;28;20094;-74
2023/08/22 11:37:33;;;;;;;13.10;4.07;;;;;;;;;;4998794;28;20022;-74
2023/08/22 11:39:59;;;;;;;14.35;5.38;;;;;;;;;;4998964;28;20034;-74
2023/08/22 11:42:25;;;;;;;17.52;4.53;;;;;;;;;;5008621;28;20022;-75
2023/08/22 11:45:11;;;;;;;13.93;4.45;;;;;;;;;;5005060;28;20441;-75
2023/08/22 11:47:43;;;;;;;13.23;4.13;;;;;;;;;;5005141;28;20494;-74
2023/08/22 11:50:15;;;;;;;14.27;4.18;;;;;;;;;;5007603;28;20072;-73
2023/08/22 11:52:44;;;;;;;17.50;3.78;;;;;;;;;;5007127;28;20034;-74
2023/08/22 11:55:10;;;;;;;9.30;4.05;;;;;;;;;;5006106;28;20093;-74
2023/08/22 11:57:36;;;;;;;10.13;3.97;;;;;;;;;;5007973;28;20025;-74
2023/08/22 12:00:04;;;;;;;13.60;3.88;;;;;;;;;;5004135;28;20018;-74
2023/08/22 12:02:29;;;;;;;12.32;3.72;;;;;;;;;;5007967;28;20501;-74
2023/08/22 12:04:55;;;;;;;13.18;4.25;;;;;;;;;;5005875;28;20030;-74
2023/08/22 12:07:21;;;;;;;16.63;2.88;;;;;;;;;;5004810;28;20116;-74
2023/08/22 12:09:59;;;;;;;14.48;3.30;;;;;;;;;;5004072;28;20471;-73
2023/08/22 12:12:25;;;;;;;8.30;3.60;;;;;;;;;;5004307;28;20449;-72
2023/08/22 12:14:50;;;;;;;12.27;4.38;;;;;;;;;;4997783;28;20113;-72
2023/08/22 12:17:16;;;;;;;18.03;4.60;;;;;;;;;;5007937;28;20065;-74
2023/08/22 12:19:42;;;;;;;10.20;3.40;;;;;;;;;;5004172;28;20022;-72
2023/08/22 12:22:07;;;;;;;10.75;3.85;;;;;;;;;;5003001;28;20197;-72
2023/08/22 12:24:32;;;;;;;14.83;3.47;;;;;;;;;;5009193;28;20022;-72
2023/08/22 12:26:58;;;;;;;14.63;3.50;;;;;;;;;;5007868;28;20021;-72
2023/08/22 12:29:23;;;;;;;10.05;3.28;;;;;;;;;;5008260;28;20451;-72
2023/08/22 12:31:48;;;;;;;7.63;3.50;;;;;;;;;;5009764;28;20014;-73
2023/08/22 12:34:13;;;;;;;16.20;4.10;;;;;;;;;;5009843;28;20022;-72
2023/08/22 12:36:39;;;;;;;11.45;3.20;;;;;;;;;;5008137;28;20018;-75
2023/08/22 12:39:04;;;;;;;10.13;3.30;;;;;;;;;;5006862;28;20514;-74
2023/08/22 12:41:31;;;;;;;11.88;3.47;;;;;;;;;;5009921;28;20069;-72
2023/08/22 12:43:56;;;;;;;8.90;3.42;;;;;;;;;;5008652;28;20018;-72
2023/08/22 12:46:21;;;;;;;10.23;3.63;;;;;;;;;;5013033;28;20372;-72
2023/08/22 12:48:46;;;;;;;13.52;3.10;;;;;;;;;;5012303;28;20022;-72
2023/08/22 12:51:11;;;;;;;13.50;3.78;;;;;;;;;;5011210;28;20030;-72
2023/08/22 12:53:37;;;;;;;9.50;3.03;;;;;;;;;;5009938;28;20087;-72
2023/08/22 12:56:02;;;;;;;8.40;3.05;;;;;;;;;;5003600;28;20383;-74
2023/08/22 12:58:28;;;;;;;12.47;4.27;;;;;;;;;;5012281;28;20022;-72
2023/08/22 13:00:53;;;;;;;10.70;2.83;;;;;;;;;;5011023;28;20264;-72
2023/08/22 13:03:19;;;;;;;10.00;2.77;;;;;;;;;;5012093;28;21015;-75
2023/08/22 13:05:44;;;;;;;10.10;3.95;;;;;;;;;;5010725;28;20026;-73
2023/08/22 13:08:09;;;;;;;7.07;3.43;;;;;;;;;;5010911;28;20025;-73
2023/08/22 13:10:35;;;;;;;14.13;3.63;;;;;;;;;;5012915;28;20017;-73
2023/08/22 13:13:00;;;;;;;10.82;3.30;;;;;;;;;;5010306;28;20073;-73
2023/08/22 13:15:26;;;;;;;8.00;3.33;;;;;;;;;;5011271;28;20041;-74
2023/08/22 13:17:52;;;;;;;15.23;3.08;;;;;;;;;;5012653;28;20253;-73
2023/08/22 13:20:17;;;;;;;9.55;2.75;;;;;;;;;;5011765;28;20049;-73
2023/08/22 13:22:42;;;;;;;10.17;2.80;;;;;;;;;;5011549;28;20026;-73
2023/08/22 13:25:09;;;;;;;10.53;3.70;;;;;;;;;;5010368;28;20289;-73
2023/08/22 13:27:35;;;;;;;8.30;3.80;;;;;;;;;;5011760;28;20014;-73
2023/08/22 13:30:00;;;;;;;17.05;3.60;;;;;;;;;;5012218;28;20101;-73
2023/08/22 13:32:25;;;;;;;10.40;3.30;;;;;;;;;;5009668;28;20033;-73
2023/08/22 13:34:50;;;;;;;20.33;3.20;;;;;;;;;;5006789;28;20101;-76
2023/08/22 13:37:15;;;;;;;16.00;3.80;;;;;;;;;;5011975;28;20343;-73
2023/08/22 13:39:41;;;;;;;14.47;3.90;;;;;;;;;;5011485;28;20029;-73
2023/08/22 13:42:06;;;;;;;8.70;3.40;;;;;;;;;;5009549;28;20606;-76
2023/08/22 13:44:31;;;;;;;14.10;3.10;;;;;;;;;;5012023;28;20022;-73
2023/08/22 13:46:57;;;;;;;6.73;3.07;;;;;;;;;;5012004;28;20530;-73
2023/08/22 13:49:23;;;;;;;10.80;2.75;;;;;;;;;;5010982;28;20090;-73
2023/08/22 13:51:48;;;;;;;7.05;2.33;;;;;;;;;;5010315;28;20152;-73
2023/08/22 13:54:13;;;;;;;12.60;3.70;;;;;;;;;;5006683;28;20022;-76
2023/08/22 13:56:38;;;;;;;11.67;4.00;;;;;;;;;;5007182;28;20084;-73
2023/08/22 13:59:03;;;;;;;12.37;4.00;;;;;;;;;;5011633;28;20105;-74
2023/08/22 14:01:29;;;;;;;9.87;3.60;;;;;;;;;;5011740;28;20371;-76
2023/08/22 14:03:54;;;;;;;11.07;2.93;;;;;;;;;;5009339;28;20092;-74
2023/08/22 14:06:19;;;;;;;9.07;3.60;;;;;;;;;;5010437;28;20395;-74
2023/08/22 14:08:45;;;;;;;8.40;2.80;;;;;;;;;;5010671;28;20013;-73
2023/08/22 14:11:10;;;;;;;11.73;3.65;;;;;;;;;;5009212;28;20288;-73
2023/08/22 14:13:36;;;;;;;7.00;2.87;;;;;;;;;;5010423;28;20026;-73
2023/08/22 14:16:01;;;;;;;11.52;3.05;;;;;;;;;;5009774;28;20065;-75
2023/08/22 14:18:26;;;;;;;11.45;3.13;;;;;;;;;;5007613;28;20029;-73
2023/08/22 14:20:51;;;;;;;10.83;4.03;;;;;;;;;;5009257;28;20360;-73
2023/08/22 14:23:17;;;;;;;21.43;2.90;;;;;;;;;;5010137;28;20030;-75
2023/08/22 14:25:44;;;;;;;11.07;3.13;;;;;;;;;;5010143;28;20093;-73